Fitzgerald, GA (31750)

12:57 PM EST on March 01, 2015 (GMT -0500)
Fitzgerald Municipal | Change Station
CLOSE
Current Station
Airport
Location: Fitzgerald Muni, Fitzgerald,,
Elevation: 364 ft
Nearby Weather Stations

Elev 364 ft 31.68 °N, 83.27 °W | Updated 22 minutes ago

Overcast
Overcast
48 °F
Feels Like 48 °F
N
5
Wind Variable Wind from ENE

Today
High -- | Low -- °F
--% Chance of Precip.
Yesterday
High -- | Low -- °F
Precip. -- in
7:00 AM 6:30 PM
Waxing Gibbous, 86% visible
Pressure 30.45 in
Visibility 1.5 miles
Clouds Overcast 300 ft
Dew Point 46 °F
Humidity 92%
Rainfall 0.00 in
Snow Depth Not available.
UV 3 out of 12
Pollen 6.80 out of 12
Air Quality Not available.
Flu Activity Not available.
METAR KFZG 011735Z AUTO 06004KT 1 1/2SM OVC003 09/08 A3045 RMK AO2 T00880075 PWINO

More Conditions Fewer Conditions

Pressure 30.45 in
Visibility 1.5 miles
Clouds Overcast 300 ft
Dew Point 46 °F
Humidity 92%
Rainfall 0.00 in
Snow Depth Not available.
UV 3 out of 12
Pollen 6.80 out of 12
Air Quality Not available.
Flu Activity Not available.
METAR KFZG 011735Z AUTO 06004KT 1 1/2SM OVC003 09/08 A3045 RMK AO2 T00880075 PWINO

More Conditions Fewer Conditions

10-Day Weather Forecast

Almanac

Astronomy

Mar. 01, 2015 Rise Set
Actual Time
Civil Twilight
Nautical Twilight
Astronomical Twilight
Moon
Length of Visible Light
Length of Day
Tomorrow will be .
, % of the Moon is Illuminated

Today's Extremes

State Highs State Lows

Community

WunderPhotos

Upload Photos

1,801,483 photos uploaded!

WunderBlogs® & News

Nearby

Air Quality

  Air Quality AQ Index Pollutant
Not available.

Snow Depth

Station Depth Elevation

Earthquake Activity

City Distance Mag. Time & Date
Minimum magnitude displayed is 2.5.

Coastal Water Temperatures

Place Temperature

Nearby Weather Stations